Terminal Aerodrome Forecast
Issued by NWS

Home | Current Version | Previous Version | Graphics & Text | Print | Product List | Glossary On
Versions: 1 2 3 4 5 6 7 8 9 10 11 12 13 14 15 16 17 18 19 20
000
FTUS43 KUNR 221502 AAA
TAFGCC
TAF AMD
KGCC 221502Z 2215/2312 15012KT P6SM OVC030
      TEMPO 2215/2217 BKN020
     FM221800 15020KT P6SM OVC035
     FM230000 14011KT P6SM VCSH OVC015
     FM230700 10007KT 5SM -RA BR OVC006=

USA.gov is the U.S. government's official web portal to all federal, state and local government web resources and services.